sensor_id;sensor_type;location;lat;lon;timestamp;temperature;humidity
67165;SHT31;54093;50.014;19.984;2022-12-18T00:06:44;-4.33;87.55
67165;SHT31;54093;50.014;19.984;2022-12-18T00:16:06;-4.34;87.67
67165;SHT31;54093;50.014;19.984;2022-12-18T00:25:27;-4.34;87.54
67165;SHT31;54093;50.014;19.984;2022-12-18T00:34:48;-4.38;87.40
67165;SHT31;54093;50.014;19.984;2022-12-18T00:44:09;-4.34;87.34
67165;SHT31;54093;50.014;19.984;2022-12-18T00:53:30;-4.34;87.32
67165;SHT31;54093;50.014;19.984;2022-12-18T01:02:51;-4.31;87.37
67165;SHT31;54093;50.014;19.984;2022-12-18T01:12:12;-4.34;87.34
67165;SHT31;54093;50.014;19.984;2022-12-18T01:21:33;-4.30;87.51
67165;SHT31;54093;50.014;19.984;2022-12-18T01:30:53;-4.28;87.32
67165;SHT31;54093;50.014;19.984;2022-12-18T01:40:14;-4.34;87.09
67165;SHT31;54093;50.014;19.984;2022-12-18T01:49:35;-4.33;87.40
67165;SHT31;54093;50.014;19.984;2022-12-18T01:59:00;-4.31;87.30
67165;SHT31;54093;50.014;19.984;2022-12-18T02:08:24;-4.33;87.21
67165;SHT31;54093;50.014;19.984;2022-12-18T02:17:48;-4.31;87.26
67165;SHT31;54093;50.014;19.984;2022-12-18T02:27:10;-4.33;87.11
67165;SHT31;54093;50.014;19.984;2022-12-18T02:36:31;-4.31;87.29
67165;SHT31;54093;50.014;19.984;2022-12-18T02:45:56;-4.28;87.53
67165;SHT31;54093;50.014;19.984;2022-12-18T03:14:14;-4.30;87.30
67165;SHT31;54093;50.014;19.984;2022-12-18T03:23:37;-4.35;87.15
67165;SHT31;54093;50.014;19.984;2022-12-18T03:33:08;-4.34;87.36
67165;SHT31;54093;50.014;19.984;2022-12-18T03:51:57;-4.38;87.05
67165;SHT31;54093;50.014;19.984;2022-12-18T04:01:20;-4.40;87.23
67165;SHT31;54093;50.014;19.984;2022-12-18T04:10:43;-4.40;86.95
67165;SHT31;54093;50.014;19.984;2022-12-18T04:20:04;-4.38;86.99
67165;SHT31;54093;50.014;19.984;2022-12-18T04:29:25;-4.40;86.89
67165;SHT31;54093;50.014;19.984;2022-12-18T04:38:45;-4.42;86.97
67165;SHT31;54093;50.014;19.984;2022-12-18T04:48:06;-4.45;86.85
67165;SHT31;54093;50.014;19.984;2022-12-18T04:57:27;-4.44;87.45
67165;SHT31;54093;50.014;19.984;2022-12-18T05:06:47;-4.44;87.28
67165;SHT31;54093;50.014;19.984;2022-12-18T05:16:08;-4.48;87.13
67165;SHT31;54093;50.014;19.984;2022-12-18T05:25:29;-4.51;86.84
67165;SHT31;54093;50.014;19.984;2022-12-18T05:34:50;-4.50;87.01
67165;SHT31;54093;50.014;19.984;2022-12-18T05:44:10;-4.50;86.87
67165;SHT31;54093;50.014;19.984;2022-12-18T05:53:31;-4.51;86.94
67165;SHT31;54093;50.014;19.984;2022-12-18T06:02:52;-4.52;86.90
67165;SHT31;54093;50.014;19.984;2022-12-18T06:12:13;-4.55;86.89
67165;SHT31;54093;50.014;19.984;2022-12-18T06:21:34;-4.54;86.93
67165;SHT31;54093;50.014;19.984;2022-12-18T06:30:54;-4.57;87.03
67165;SHT31;54093;50.014;19.984;2022-12-18T06:40:15;-4.58;86.98
67165;SHT31;54093;50.014;19.984;2022-12-18T06:49:36;-4.60;86.82
67165;SHT31;54093;50.014;19.984;2022-12-18T06:58:56;-4.57;87.01
67165;SHT31;54093;50.014;19.984;2022-12-18T07:08:17;-4.55;87.11
67165;SHT31;54093;50.014;19.984;2022-12-18T07:17:38;-4.51;87.10
67165;SHT31;54093;50.014;19.984;2022-12-18T07:26:58;-4.51;87.18
67165;SHT31;54093;50.014;19.984;2022-12-18T07:36:22;-4.47;86.97
67165;SHT31;54093;50.014;19.984;2022-12-18T07:45:43;-4.42;87.06
67165;SHT31;54093;50.014;19.984;2022-12-18T07:55:04;-4.37;86.89
67165;SHT31;54093;50.014;19.984;2022-12-18T08:04:25;-4.30;86.86
67165;SHT31;54093;50.014;19.984;2022-12-18T08:13:46;-4.20;87.33
67165;SHT31;54093;50.014;19.984;2022-12-18T08:23:06;-4.18;86.35
67165;SHT31;54093;50.014;19.984;2022-12-18T08:32:27;-4.10;86.54
67165;SHT31;54093;50.014;19.984;2022-12-18T08:41:48;-4.00;86.36
67165;SHT31;54093;50.014;19.984;2022-12-18T08:51:29;-3.90;86.14
67165;SHT31;54093;50.014;19.984;2022-12-18T09:00:50;-3.89;85.03
67165;SHT31;54093;50.014;19.984;2022-12-18T09:10:11;-3.76;85.46
67165;SHT31;54093;50.014;19.984;2022-12-18T09:19:31;-3.61;85.61
67165;SHT31;54093;50.014;19.984;2022-12-18T09:28:52;-3.56;84.33
67165;SHT31;54093;50.014;19.984;2022-12-18T09:38:15;-3.52;83.30
67165;SHT31;54093;50.014;19.984;2022-12-18T09:47:36;-3.48;83.78
67165;SHT31;54093;50.014;19.984;2022-12-18T09:56:58;-3.41;83.52
67165;SHT31;54093;50.014;19.984;2022-12-18T10:15:41;-3.42;82.96
67165;SHT31;54093;50.014;19.984;2022-12-18T10:34:34;-3.33;83.28
67165;SHT31;54093;50.014;19.984;2022-12-18T10:53:35;-3.24;81.87
67165;SHT31;54093;50.014;19.984;2022-12-18T11:02:56;-3.23;80.99
67165;SHT31;54093;50.014;19.984;2022-12-18T11:12:18;-3.20;81.59
67165;SHT31;54093;50.014;19.984;2022-12-18T11:21:40;-3.20;81.85
67165;SHT31;54093;50.014;19.984;2022-12-18T12:19:15;-2.84;80.13
67165;SHT31;54093;50.014;19.984;2022-12-18T12:38:11;-2.55;79.96
67165;SHT31;54093;50.014;19.984;2022-12-18T12:47:35;-2.42;79.64
67165;SHT31;54093;50.014;19.984;2022-12-18T13:15:45;-0.60;75.55
67165;SHT31;54093;50.014;19.984;2022-12-18T13:34:46;-1.27;75.10
67165;SHT31;54093;50.014;19.984;2022-12-18T13:44:22;-1.83;77.04
67165;SHT31;54093;50.014;19.984;2022-12-18T13:53:46;-2.27;78.42
67165;SHT31;54093;50.014;19.984;2022-12-18T14:03:16;-2.46;79.11
67165;SHT31;54093;50.014;19.984;2022-12-18T14:12:37;-2.79;79.53
67165;SHT31;54093;50.014;19.984;2022-12-18T14:22:18;-3.13;80.01
67165;SHT31;54093;50.014;19.984;2022-12-18T14:31:39;-3.40;80.67
67165;SHT31;54093;50.014;19.984;2022-12-18T14:50:23;-3.79;81.65
67165;SHT31;54093;50.014;19.984;2022-12-18T14:59:44;-3.87;82.45
67165;SHT31;54093;50.014;19.984;2022-12-18T15:09:18;-4.04;82.13
67165;SHT31;54093;50.014;19.984;2022-12-18T15:18:41;-4.13;82.30
67165;SHT31;54093;50.014;19.984;2022-12-18T15:28:02;-4.17;82.45
67165;SHT31;54093;50.014;19.984;2022-12-18T15:37:23;-4.28;82.09
67165;SHT31;54093;50.014;19.984;2022-12-18T15:46:44;-4.61;80.43
67165;SHT31;54093;50.014;19.984;2022-12-18T15:56:04;-4.78;81.08
67165;SHT31;54093;50.014;19.984;2022-12-18T16:05:44;-5.03;81.05
67165;SHT31;54093;50.014;19.984;2022-12-18T16:15:05;-5.31;79.91
67165;SHT31;54093;50.014;19.984;2022-12-18T16:24:27;-5.58;80.73
67165;SHT31;54093;50.014;19.984;2022-12-18T16:33:48;-5.85;80.72
67165;SHT31;54093;50.014;19.984;2022-12-18T16:43:09;-5.88;81.23
67165;SHT31;54093;50.014;19.984;2022-12-18T16:52:29;-6.00;81.16
67165;SHT31;54093;50.014;19.984;2022-12-18T17:01:50;-6.13;81.29
67165;SHT31;54093;50.014;19.984;2022-12-18T17:11:11;-6.36;79.46
67165;SHT31;54093;50.014;19.984;2022-12-18T17:20:31;-6.54;81.00
67165;SHT31;54093;50.014;19.984;2022-12-18T17:29:52;-6.68;80.38
67165;SHT31;54093;50.014;19.984;2022-12-18T17:39:16;-6.81;80.31
67165;SHT31;54093;50.014;19.984;2022-12-18T17:48:37;-6.93;80.78
67165;SHT31;54093;50.014;19.984;2022-12-18T17:57:58;-7.10;80.59
67165;SHT31;54093;50.014;19.984;2022-12-18T18:07:21;-7.20;81.20
67165;SHT31;54093;50.014;19.984;2022-12-18T18:16:42;-7.10;82.12
67165;SHT31;54093;50.014;19.984;2022-12-18T18:26:04;-7.09;81.58
67165;SHT31;54093;50.014;19.984;2022-12-18T18:35:25;-7.19;81.28
67165;SHT31;54093;50.014;19.984;2022-12-18T18:44:46;-7.30;81.27
67165;SHT31;54093;50.014;19.984;2022-12-18T18:54:07;-7.38;81.33
67165;SHT31;54093;50.014;19.984;2022-12-18T19:03:28;-7.54;80.66
67165;SHT31;54093;50.014;19.984;2022-12-18T19:12:50;-7.73;80.61
67165;SHT31;54093;50.014;19.984;2022-12-18T19:22:29;-7.84;81.01
67165;SHT31;54093;50.014;19.984;2022-12-18T19:31:50;-8.10;80.37
67165;SHT31;54093;50.014;19.984;2022-12-18T19:41:11;-8.27;79.62
67165;SHT31;54093;50.014;19.984;2022-12-18T19:50:32;-8.30;81.17
67165;SHT31;54093;50.014;19.984;2022-12-18T19:59:52;-8.40;80.17
67165;SHT31;54093;50.014;19.984;2022-12-18T20:09:13;-8.67;79.23
67165;SHT31;54093;50.014;19.984;2022-12-18T20:18:34;-8.62;81.19
67165;SHT31;54093;50.014;19.984;2022-12-18T20:27:56;-8.77;80.50
67165;SHT31;54093;50.014;19.984;2022-12-18T20:37:17;-8.80;81.25
67165;SHT31;54093;50.014;19.984;2022-12-18T20:46:37;-8.60;82.25
67165;SHT31;54093;50.014;19.984;2022-12-18T20:55:58;-8.51;82.40
67165;SHT31;54093;50.014;19.984;2022-12-18T21:05:19;-8.43;83.07
67165;SHT31;54093;50.014;19.984;2022-12-18T21:14:39;-8.36;83.26
67165;SHT31;54093;50.014;19.984;2022-12-18T21:24:01;-8.33;83.07
67165;SHT31;54093;50.014;19.984;2022-12-18T21:33:21;-8.38;83.11
67165;SHT31;54093;50.014;19.984;2022-12-18T21:42:42;-8.38;83.49
67165;SHT31;54093;50.014;19.984;2022-12-18T21:52:22;-8.38;83.90
67165;SHT31;54093;50.014;19.984;2022-12-18T22:01:43;-8.38;83.95
67165;SHT31;54093;50.014;19.984;2022-12-18T22:11:04;-8.40;83.57
67165;SHT31;54093;50.014;19.984;2022-12-18T22:20:24;-8.51;83.04
67165;SHT31;54093;50.014;19.984;2022-12-18T22:29:45;-8.81;81.40
67165;SHT31;54093;50.014;19.984;2022-12-18T22:39:25;-9.08;81.15
67165;SHT31;54093;50.014;19.984;2022-12-18T22:48:46;-9.27;80.99
67165;SHT31;54093;50.014;19.984;2022-12-18T22:58:07;-9.36;80.07
67165;SHT31;54093;50.014;19.984;2022-12-18T23:07:27;-9.58;79.33
67165;SHT31;54093;50.014;19.984;2022-12-18T23:16:48;-9.71;79.56
67165;SHT31;54093;50.014;19.984;2022-12-18T23:26:10;-10.06;80.27
67165;SHT31;54093;50.014;19.984;2022-12-18T23:35:31;-10.06;81.12
67165;SHT31;54093;50.014;19.984;2022-12-18T23:44:52;-10.01;81.34
67165;SHT31;54093;50.014;19.984;2022-12-18T23:54:12;-10.01;81.27
